Time;durP1;ratioP1;P1;durP2;ratioP2;P2;SDS_P1;SDS_P2;PMS_P1;PMS_P2;Temp;Humidity;BMP_temperature;BMP_pressure;BME280_temperature;BME280_humidity;BME280_pressure;Samples;Min_cycle;Max_cycle;Signal;HPM_P1;HPM_P2
2021/06/09 00:00:49;;;;;;;36.33;28.25;;;16.10;99.90;;;17.53;93.21;101173.53;4940806;29;20042;-87
2021/06/09 00:03:22;;;;;;;34.25;28.20;;;16.10;99.90;;;17.50;93.54;101176.34;4924799;29;20054;-87
2021/06/09 00:05:55;;;;;;;34.22;27.00;;;16.00;99.90;;;17.35;93.81;101166.94;4956002;29;20039;-85
2021/06/09 00:08:24;;;;;;;38.25;29.60;;;15.90;99.90;;;17.28;94.17;101170.53;4939647;29;20087;-85
2021/06/09 00:10:55;;;;;;;35.42;28.38;;;15.90;99.90;;;17.28;94.09;101181.00;4939030;29;20086;-87
2021/06/09 00:13:30;;;;;;;34.08;26.40;;;15.80;99.90;;;17.18;94.26;101176.91;4955180;29;20093;-86
2021/06/09 00:16:14;;;;;;;40.75;30.05;;;15.80;99.90;;;17.18;94.35;101174.06;4938695;29;20039;-86
2021/06/09 00:18:44;;;;;;;37.03;28.88;;;15.80;99.90;;;17.12;94.23;101172.81;4938990;29;20031;-87
2021/06/09 00:21:34;;;;;;;39.15;29.15;;;15.70;99.90;;;17.02;94.45;101178.34;4938955;29;20043;-87
2021/06/09 00:24:06;;;;;;;34.42;27.08;;;15.60;99.90;;;16.91;94.81;101181.09;4940125;29;20110;-85
2021/06/09 00:26:51;;;;;;;30.95;25.98;;;15.50;99.90;;;16.83;95.14;101185.84;4940518;29;20034;-84
2021/06/09 00:29:46;;;;;;;41.42;31.90;;;15.50;99.90;;;16.75;95.60;101175.69;4939309;29;20062;-83
2021/06/09 00:32:19;;;;;;;37.83;29.80;;;15.40;99.90;;;16.76;95.42;101168.84;4952989;29;20032;-87
2021/06/09 00:34:48;;;;;;;36.40;29.00;;;15.40;99.90;;;16.74;95.83;101171.25;4938831;29;20027;-85
2021/06/09 00:37:14;;;;;;;34.05;26.40;;;15.40;99.90;;;16.75;95.86;101174.88;4956480;28;20035;-86
2021/06/09 00:39:42;;;;;;;34.88;28.38;;;15.40;99.90;;;16.73;95.96;101180.09;4939362;29;20131;-84
2021/06/09 00:42:08;;;;;;;34.78;28.20;;;15.30;99.90;;;16.65;96.10;101175.59;4939519;29;20545;-83
2021/06/09 00:44:37;;;;;;;37.70;28.98;;;15.20;99.90;;;16.62;96.42;101182.81;4939469;29;20468;-85
2021/06/09 00:47:04;;;;;;;36.70;28.33;;;15.30;99.90;;;16.58;96.14;101169.84;4955063;28;20531;-85
2021/06/09 00:49:53;;;;;;;34.58;27.15;;;15.20;99.90;;;16.54;96.69;101171.78;4938460;29;20406;-84
2021/06/09 00:52:30;;;;;;;34.17;25.83;;;15.20;99.90;;;16.53;96.62;101173.00;4938780;29;20048;-84
2021/06/09 00:54:59;;;;;;;37.65;27.20;;;15.10;99.90;;;16.54;96.58;101174.63;4955408;28;20035;-87
2021/06/09 00:57:26;;;;;;;36.53;28.35;;;15.10;99.90;;;16.65;96.71;101179.22;4966061;23;20023;-83
2021/06/09 00:59:52;;;;;;;38.80;29.63;;;15.20;99.90;;;16.70;96.89;101183.69;4980600;28;20030;-81
2021/06/09 01:02:18;;;;;;;36.65;30.13;;;15.30;99.90;;;16.72;96.97;101182.13;4981431;28;20046;-84
2021/06/09 01:04:43;;;;;;;37.70;28.80;;;15.20;99.90;;;16.73;96.72;101183.72;4963131;28;20336;-83
2021/06/09 01:07:12;;;;;;;40.72;29.90;;;15.20;99.90;;;16.74;97.27;101176.06;4962598;28;20026;-84
2021/06/09 01:09:38;;;;;;;37.60;29.77;;;15.20;99.90;;;16.75;96.96;101175.69;4980968;28;20022;-82
2021/06/09 01:12:05;;;;;;;38.58;29.13;;;15.30;99.90;;;16.72;97.23;101173.66;4978326;28;20027;-83
2021/06/09 01:14:31;;;;;;;38.33;28.55;;;15.20;99.90;;;16.71;97.23;101172.03;4977609;28;20034;-83
2021/06/09 01:16:57;;;;;;;35.55;27.83;;;15.20;99.90;;;16.73;97.35;101169.63;4960518;28;20034;-83
2021/06/09 01:19:23;;;;;;;40.83;29.60;;;15.20;99.90;;;16.78;97.50;101168.47;4977558;28;20034;-83
2021/06/09 01:21:49;;;;;;;41.35;32.50;;;15.30;99.90;;;16.88;97.21;101172.59;4978753;28;20030;-81
2021/06/09 01:24:16;;;;;;;39.60;30.65;;;15.30;99.90;;;16.96;97.11;101160.16;4960044;28;20082;-83
2021/06/09 01:26:44;;;;;;;33.40;26.55;;;15.40;99.90;;;17.02;96.95;101167.06;4977585;28;20022;-83
2021/06/09 01:29:11;;;;;;;30.13;25.58;;;15.50;99.90;;;17.06;96.70;101162.28;4960022;28;20078;-85
2021/06/09 01:31:37;;;;;;;29.30;23.38;;;15.50;99.90;;;17.08;96.88;101163.50;4960221;28;20049;-82
2021/06/09 01:34:05;;;;;;;30.15;24.25;;;15.60;99.90;;;17.09;96.76;101165.13;4959766;28;20035;-82
2021/06/09 01:36:42;;;;;;;35.58;26.63;;;15.50;99.90;;;17.11;96.71;101157.09;4959787;28;20042;-83
2021/06/09 01:39:19;;;;;;;31.95;25.63;;;15.60;99.90;;;17.13;96.61;101159.53;4977908;28;20106;-83
2021/06/09 01:41:50;;;;;;;33.97;26.38;;;15.60;99.90;;;17.13;96.75;101171.63;4977945;28;20031;-83
2021/06/09 01:44:17;;;;;;;33.08;25.40;;;15.60;99.90;;;17.15;96.48;101172.03;4960004;28;20059;-83
2021/06/09 01:46:43;;;;;;;31.10;26.15;;;15.60;99.90;;;17.15;96.75;101169.22;4963150;28;20011;-82
2021/06/09 01:49:17;;;;;;;34.05;28.27;;;15.70;99.90;;;17.15;96.33;101171.22;4977452;28;20030;-81
2021/06/09 01:51:44;;;;;;;38.80;30.25;;;15.60;99.90;;;17.13;96.49;101171.63;4977025;28;20065;-84
2021/06/09 01:54:13;;;;;;;38.45;31.05;;;15.60;99.90;;;17.15;96.61;101168.38;4977702;28;20023;-83
2021/06/09 01:56:39;;;;;;;39.47;29.45;;;15.60;99.90;;;17.13;96.21;101170.81;4977245;28;20061;-84
2021/06/09 01:59:19;;;;;;;36.03;26.85;;;15.60;99.90;;;17.06;96.45;101165.09;4977025;28;20152;-84
2021/06/09 02:01:49;;;;;;;34.22;26.85;;;15.50;99.90;;;16.98;96.56;101172.69;4977498;28;20026;-83
2021/06/09 02:04:18;;;;;;;33.60;26.20;;;15.50;99.90;;;16.91;96.81;101172.63;4975676;28;20099;-84
2021/06/09 02:06:45;;;;;;;33.38;26.23;;;15.40;99.90;;;16.85;97.02;101171.38;4975907;28;20030;-84
2021/06/09 02:09:14;;;;;;;33.65;27.88;;;15.40;99.90;;;16.81;96.96;101174.16;4960074;28;20074;-83
2021/06/09 02:11:45;;;;;;;34.78;27.70;;;15.40;99.90;;;16.76;96.96;101173.69;4960345;28;20353;-83
2021/06/09 02:14:13;;;;;;;40.60;30.00;;;15.30;99.90;;;16.73;97.44;101174.44;4977942;28;20414;-83
2021/06/09 02:16:44;;;;;;;36.17;28.20;;;15.30;99.90;;;16.70;97.34;101172.41;4978045;28;20371;-82
2021/06/09 02:19:12;;;;;;;34.47;27.00;;;15.20;99.90;;;16.70;97.50;101167.56;4959933;28;20276;-83
2021/06/09 02:21:42;;;;;;;38.13;31.00;;;15.20;99.90;;;16.68;97.33;101163.53;4959246;28;20537;-82
2021/06/09 02:24:10;;;;;;;39.58;29.77;;;15.20;99.90;;;16.68;97.51;101160.69;4976930;28;20042;-82
2021/06/09 02:26:41;;;;;;;36.72;29.55;;;15.20;99.90;;;16.64;97.82;101157.84;4976593;28;20027;-81
2021/06/09 02:29:12;;;;;;;42.58;33.03;;;15.10;99.90;;;16.67;97.88;101159.06;4976844;28;20449;-85
2021/06/09 02:31:46;;;;;;;40.33;31.90;;;15.20;99.90;;;16.65;97.86;101151.00;4959942;28;20027;-82
2021/06/09 02:34:24;;;;;;;40.00;29.30;;;15.20;99.90;;;16.64;97.77;101148.56;4959836;28;20054;-83
2021/06/09 02:36:55;;;;;;;32.70;25.73;;;15.20;99.90;;;16.53;97.71;101148.44;4976631;28;20030;-83
2021/06/09 02:39:24;;;;;;;32.97;26.52;;;15.20;99.90;;;16.44;97.96;101150.75;4976738;28;20093;-83
2021/06/09 02:41:50;;;;;;;35.78;26.92;;;15.00;99.90;;;16.35;98.17;101150.25;4976466;28;20034;-83
2021/06/09 02:44:18;;;;;;;40.63;30.05;;;14.90;99.90;;;16.25;98.00;101143.28;4976559;28;20047;-85
2021/06/09 02:46:59;;;;;;;37.17;29.17;;;14.80;99.90;;;16.16;98.37;101144.78;4977088;28;20050;-85
2021/06/09 02:49:30;;;;;;;38.47;30.27;;;14.80;99.90;;;16.12;98.69;101153.19;4976783;28;20208;-83
2021/06/09 02:52:24;;;;;;;38.08;28.58;;;14.70;99.90;;;16.07;99.02;101149.91;4976815;28;20019;-84
2021/06/09 02:55:26;;;;;;;39.53;31.13;;;14.70;99.90;;;16.04;99.33;101153.50;4978256;28;20034;-83
2021/06/09 02:58:33;;;;;;;49.67;35.25;;;14.60;99.90;;;16.04;99.55;101156.31;4960421;28;20469;-83
2021/06/09 03:01:51;;;;;;;38.97;30.05;;;14.60;99.90;;;16.03;99.40;101160.31;4980030;28;20030;-84
2021/06/09 03:04:49;;;;;;;44.58;32.13;;;14.60;99.90;;;16.01;99.65;101155.06;4923808;28;20122;-84
2021/06/09 03:07:58;;;;;;;45.03;32.17;;;14.60;99.90;;;15.98;99.80;101155.03;4975946;28;20134;-82
2021/06/09 03:10:54;;;;;;;42.72;32.38;;;14.50;99.90;;;16.01;99.96;101154.25;4976164;28;20027;-82
2021/06/09 03:14:01;;;;;;;45.13;32.75;;;14.50;99.90;;;16.06;100.00;101153.91;4976656;28;20050;-81
2021/06/09 03:16:47;;;;;;;52.58;35.45;;;14.60;99.90;;;16.10;100.00;101149.94;4977200;28;20132;-83
2021/06/09 03:19:47;;;;;;;42.55;33.03;;;14.60;99.90;;;16.13;99.95;101148.38;4964248;28;20053;-83
2021/06/09 03:22:41;;;;;;;40.53;29.95;;;14.60;99.90;;;16.12;100.00;101149.53;4981179;28;20026;-84
2021/06/09 03:25:08;;;;;;;47.03;34.40;;;14.70;99.90;;;16.08;100.00;101152.34;4963590;28;20034;-83
2021/06/09 03:27:49;;;;;;;46.67;35.35;;;14.60;99.90;;;16.04;100.00;101154.31;4981112;28;20151;-84
2021/06/09 03:30:18;;;;;;;57.08;38.55;;;14.60;99.90;;;16.07;100.00;101155.53;4963773;28;20443;-84
2021/06/09 03:33:06;;;;;;;49.38;36.85;;;14.60;99.90;;;16.04;100.00;101156.31;4979456;28;20031;-83
2021/06/09 03:36:13;;;;;;;46.92;33.75;;;14.60;99.90;;;16.07;100.00;101149.91;4980411;28;20027;-84
2021/06/09 03:38:52;;;;;;;51.45;38.10;;;14.70;99.90;;;16.08;100.00;101151.53;4956751;28;20129;-84
2021/06/09 03:41:22;;;;;;;57.65;39.45;;;14.70;99.90;;;16.22;100.00;101146.06;4980688;28;20063;-84
2021/06/09 03:43:55;;;;;;;55.17;38.60;;;14.80;99.90;;;16.36;100.00;101151.88;4980569;28;20041;-83
2021/06/09 03:46:24;;;;;;;51.78;38.00;;;14.90;99.90;;;16.47;100.00;101149.19;4984520;28;20083;-82
2021/06/09 03:48:54;;;;;;;51.13;36.42;;;15.10;99.90;;;16.59;100.00;101154.56;4989509;28;20037;-82
2021/06/09 03:51:24;;;;;;;43.45;32.97;;;15.10;99.90;;;16.68;99.53;101143.78;4988969;28;20037;-81
2021/06/09 03:53:55;;;;;;;42.67;31.63;;;15.10;99.90;;;16.75;99.01;101155.97;4992268;28;20058;-80
2021/06/09 03:56:24;;;;;;;46.53;31.33;;;15.20;99.90;;;16.80;99.06;101152.78;4990256;28;20034;-81
2021/06/09 03:58:53;;;;;;;41.35;31.30;;;15.30;99.90;;;16.83;98.72;101154.81;4971899;28;20141;-81
2021/06/09 04:01:21;;;;;;;49.17;34.72;;;15.30;99.90;;;16.80;98.57;101157.59;4980759;28;20484;-84
2021/06/09 04:03:49;;;;;;;46.55;33.30;;;15.40;99.90;;;16.89;98.21;101149.63;4959156;28;20069;-81
2021/06/09 04:06:19;;;;;;;39.92;30.98;;;15.40;99.90;;;16.95;97.63;101150.09;4976880;28;20475;-83
2021/06/09 04:08:49;;;;;;;42.20;29.95;;;15.40;99.90;;;16.98;97.50;101152.13;4977612;28;20038;-83
2021/06/09 04:11:21;;;;;;;45.15;32.05;;;15.40;99.90;;;16.98;97.02;101149.31;4978725;28;20022;-83
2021/06/09 04:13:50;;;;;;;38.63;27.88;;;15.40;99.90;;;16.94;96.88;101148.47;4977255;28;20031;-86
2021/06/09 04:16:18;;;;;;;34.72;27.52;;;15.40;99.90;;;16.91;96.79;101147.25;4977782;28;20070;-82
2021/06/09 04:18:49;;;;;;;36.03;26.75;;;15.40;99.90;;;16.85;96.62;101143.16;4977015;28;20026;-85
2021/06/09 04:21:16;;;;;;;39.00;29.33;;;15.40;99.90;;;16.83;96.27;101148.34;4982230;28;20090;-84
2021/06/09 04:23:43;;;;;;;39.28;28.83;;;15.30;99.90;;;16.81;96.38;101145.13;4981710;28;20545;-85
2021/06/09 04:26:16;;;;;;;44.75;31.60;;;15.30;99.90;;;16.77;96.31;101135.81;4964860;28;20026;-81
2021/06/09 04:28:47;;;;;;;38.83;28.05;;;15.20;99.90;;;16.74;96.38;101142.22;4988089;28;20027;-82
2021/06/09 04:31:15;;;;;;;34.85;27.48;;;15.20;99.90;;;16.73;96.53;101147.06;4988415;28;20034;-81
2021/06/09 04:33:47;;;;;;;45.13;32.03;;;15.20;99.90;;;16.76;96.32;101134.22;4985302;28;20506;-83
2021/06/09 04:36:16;;;;;;;46.42;32.10;;;15.30;99.90;;;16.81;95.90;101145.94;4980183;28;20066;-82
2021/06/09 04:38:42;;;;;;;50.08;33.08;;;15.30;99.90;;;16.85;95.85;101149.63;4984150;28;20035;-83
2021/06/09 04:41:09;;;;;;;42.67;31.05;;;15.40;99.90;;;16.90;95.61;101145.59;4979808;28;20030;-86
2021/06/09 04:43:36;;;;;;;45.83;31.85;;;15.30;99.90;;;16.97;95.17;101153.31;4979273;28;20027;-82
2021/06/09 04:46:03;;;;;;;43.78;32.50;;;15.40;99.90;;;17.04;95.21;101147.75;4979436;28;20034;-82
2021/06/09 04:48:29;;;;;;;40.95;31.30;;;15.50;99.90;;;17.15;94.59;101154.28;4962057;28;20050;-83
2021/06/09 04:50:55;;;;;;;44.95;30.63;;;15.60;99.90;;;17.23;94.75;101151.16;4962073;28;20031;-84
2021/06/09 04:53:21;;;;;;;42.10;32.05;;;15.70;99.90;;;17.35;93.98;101148.00;4979318;28;20392;-84
2021/06/09 04:55:52;;;;;;;40.60;29.83;;;15.70;99.90;;;17.53;93.24;101147.31;4961546;28;20031;-88
2021/06/09 04:58:24;;;;;;;41.80;31.73;;;15.80;99.90;;;17.66;92.80;101146.63;4986113;28;20042;-84
2021/06/09 05:00:52;;;;;;;46.97;31.88;;;16.00;99.90;;;17.83;91.92;101150.75;4966558;28;20030;-84
2021/06/09 05:03:19;;;;;;;38.90;28.10;;;16.10;99.90;;;17.96;91.33;101146.38;4965737;28;20030;-84
2021/06/09 05:05:49;;;;;;;38.83;29.60;;;16.20;99.90;;;18.06;90.53;101145.63;4965948;28;20046;-84
2021/06/09 05:08:16;;;;;;;34.15;27.50;;;16.40;99.90;;;18.16;89.75;101142.03;4982975;28;20019;-84
2021/06/09 05:10:43;;;;;;;39.35;28.52;;;16.40;99.90;;;18.26;89.39;101146.94;4983516;28;20042;-85
2021/06/09 05:13:24;;;;;;;35.50;27.17;;;16.60;99.90;;;18.38;89.01;101143.72;4984870;28;20034;-84
2021/06/09 05:16:02;;;;;;;35.55;28.40;;;16.70;99.90;;;18.57;88.38;101150.25;4983095;28;20228;-86
2021/06/09 05:18:41;;;;;;;37.30;28.63;;;16.80;99.90;;;18.75;87.49;101148.31;4983130;28;20118;-85
2021/06/09 05:21:09;;;;;;;33.88;28.08;;;17.00;99.90;;;18.96;86.44;101148.31;4965775;28;20035;-85
2021/06/09 05:23:44;;;;;;;38.47;28.52;;;17.20;99.90;;;19.17;85.69;101144.69;4966746;28;20078;-82
2021/06/09 05:26:15;;;;;;;32.90;26.40;;;17.40;99.90;;;19.41;85.07;101141.06;4983380;28;20054;-85
2021/06/09 05:28:50;;;;;;;36.88;28.95;;;17.60;99.90;;;19.65;84.45;101145.06;4985071;28;20030;-85
2021/06/09 05:31:19;;;;;;;32.03;25.10;;;17.80;99.90;;;19.88;83.61;101146.22;4982638;28;20051;-86
2021/06/09 05:33:46;;;;;;;33.25;27.42;;;18.00;99.90;;;20.07;82.08;101139.25;4982523;28;20034;-83
2021/06/09 05:36:14;;;;;;;35.60;27.73;;;18.20;99.90;;;20.16;81.62;101148.16;4983947;28;20041;-84
2021/06/09 05:38:43;;;;;;;42.22;29.83;;;18.30;99.90;;;20.16;79.90;101145.31;4985513;28;20050;-86
2021/06/09 05:41:11;;;;;;;35.97;25.80;;;18.30;99.90;;;20.24;80.36;101149.72;4984476;28;20031;-85
2021/06/09 05:43:41;;;;;;;32.15;24.38;;;18.40;99.90;;;20.48;79.71;101153.69;4986697;28;20054;-83
2021/06/09 05:46:10;;;;;;;33.13;25.73;;;18.60;99.90;;;20.69;78.70;101149.91;4983704;28;20034;-86
2021/06/09 05:48:45;;;;;;;33.15;25.42;;;18.70;99.90;;;20.89;78.33;101151.81;4982249;28;20042;-83
2021/06/09 05:51:17;;;;;;;28.95;22.90;;;18.90;99.90;;;21.16;77.42;101146.34;4982262;28;20038;-84
2021/06/09 05:53:44;;;;;;;30.63;24.45;;;19.10;99.90;;;21.28;75.94;101156.41;4982070;28;20038;-84
2021/06/09 05:56:11;;;;;;;31.60;25.35;;;19.30;99.90;;;21.42;75.54;101153.41;4964115;28;20035;-84
2021/06/09 05:58:40;;;;;;;28.50;22.95;;;19.40;99.90;;;21.69;75.30;101159.25;4964435;28;20415;-85
2021/06/09 06:01:11;;;;;;;28.42;22.30;;;19.60;99.90;;;21.81;74.02;101162.38;4964623;28;20491;-83
2021/06/09 06:03:44;;;;;;;25.60;21.60;;;19.80;99.90;;;21.77;74.31;101161.59;4979772;28;20085;-85
2021/06/09 06:06:14;;;;;;;46.15;26.27;;;19.80;99.90;;;21.72;73.90;101162.06;4983930;28;20437;-81
2021/06/09 06:08:44;;;;;;;65.20;36.08;;;19.80;99.90;;;21.78;73.18;101165.25;4979761;28;20583;-86
2021/06/09 06:11:15;;;;;;;36.50;25.08;;;19.80;99.90;;;22.14;71.49;101169.34;4980904;28;20027;-84
2021/06/09 06:13:48;;;;;;;31.08;25.25;;;20.10;99.90;;;22.47;70.27;101159.16;4980237;28;20113;-83
2021/06/09 06:16:18;;;;;;;28.85;22.65;;;20.40;99.90;;;22.81;70.33;101159.09;4964007;28;20058;-84
2021/06/09 06:18:48;;;;;;;26.23;20.75;;;20.70;99.90;;;23.18;68.50;101173.19;4984596;28;20034;-83
2021/06/09 06:21:19;;;;;;;29.23;22.00;;;20.90;99.90;;;23.46;66.76;101169.88;4980013;28;20054;-85
2021/06/09 06:23:46;;;;;;;26.48;21.40;;;21.20;99.90;;;23.75;66.04;101169.34;4963009;28;20039;-86
2021/06/09 06:26:19;;;;;;;29.02;21.20;;;21.50;99.90;;;24.06;65.29;101174.44;4980868;28;20027;-84
2021/06/09 06:28:52;;;;;;;22.15;18.50;;;21.80;99.90;;;24.34;65.09;101175.16;4961899;28;20180;-83
2021/06/09 06:31:26;;;;;;;24.95;20.38;;;22.00;99.90;;;24.63;64.06;101167.53;4963270;28;20026;-85
2021/06/09 06:33:58;;;;;;;24.50;20.08;;;22.40;99.90;;;24.89;64.05;101165.75;4962957;28;20061;-85
2021/06/09 06:36:29;;;;;;;28.10;22.23;;;22.50;99.90;;;24.99;60.98;101167.56;4979993;28;20166;-85
2021/06/09 06:38:56;;;;;;;31.00;24.08;;;22.70;99.90;;;25.14;60.33;101163.13;4979010;28;20035;-84
2021/06/09 06:41:25;;;;;;;29.05;21.23;;;22.80;99.90;;;25.36;60.76;101169.09;4963403;28;20054;-84
2021/06/09 06:43:51;;;;;;;26.15;19.30;;;23.00;99.90;;;25.57;60.23;101169.38;4962689;28;20034;-84
2021/06/09 06:46:19;;;;;;;28.20;22.08;;;23.20;99.90;;;25.55;58.13;101171.09;4963222;28;20019;-82
2021/06/09 06:48:52;;;;;;;28.42;21.05;;;23.30;99.90;;;25.62;57.50;101163.09;4960819;28;20038;-85
2021/06/09 06:51:20;;;;;;;29.83;22.13;;;23.40;99.90;;;25.93;56.33;101163.50;4979197;28;20054;-81
2021/06/09 06:53:54;;;;;;;27.58;20.70;;;23.60;99.90;;;26.18;54.95;101165.66;4980078;28;20038;-83
2021/06/09 06:56:24;;;;;;;27.98;21.67;;;23.80;99.90;;;26.38;54.92;101162.63;4979491;28;20038;-84
2021/06/09 06:58:52;;;;;;;28.13;20.15;;;24.00;99.90;;;26.55;54.69;101167.03;4978469;23;20043;-90
2021/06/09 07:01:39;;;;;;;32.47;24.10;;;24.20;99.90;;;26.65;53.27;101163.06;4943021;29;20031;-87
2021/06/09 07:04:07;;;;;;;31.92;24.95;;;24.20;99.90;;;26.81;53.94;101167.91;4944376;29;20195;-90
2021/06/09 07:06:36;;;;;;;26.55;20.00;;;24.40;99.90;;;27.07;53.62;101173.16;4944274;29;20042;-93
2021/06/09 07:09:04;;;;;;;24.95;18.60;;;24.50;99.90;;;27.34;52.84;101169.81;4944854;29;20110;-91
2021/06/09 07:11:32;;;;;;;27.50;22.00;;;24.70;99.90;;;27.57;51.93;101168.66;4944245;29;20035;-89
2021/06/09 07:14:01;;;;;;;25.13;19.80;;;25.00;99.90;;;27.71;50.12;101168.94;4961424;29;20035;-87
2021/06/09 07:16:33;;;;;;;26.92;21.02;;;25.10;99.90;;;27.91;51.24;101164.97;4944937;29;20399;-91
2021/06/09 07:19:02;;;;;;;25.65;20.05;;;25.30;99.90;;;27.84;48.39;101168.13;4944281;29;20439;-89
2021/06/09 07:21:29;;;;;;;25.27;20.88;;;25.30;99.90;;;27.71;48.98;101162.41;4944108;29;20027;-88
2021/06/09 07:23:55;;;;;;;23.77;18.83;;;25.30;99.90;;;27.80;50.34;101168.25;4942983;29;20178;-87
2021/06/09 07:26:22;;;;;;;19.60;17.50;;;25.30;99.90;;;28.09;50.25;101163.13;4958048;29;20027;-89
2021/06/09 07:28:55;;;;;;;24.50;19.33;;;25.40;99.90;;;28.48;49.52;101167.34;4946658;29;20067;-84
2021/06/09 07:31:36;;;;;;;26.90;20.40;;;25.70;99.90;;;28.59;48.36;101164.88;4946477;29;20023;-85
2021/06/09 07:34:04;;;;;;;25.58;19.30;;;25.90;99.90;;;28.75;47.90;101166.75;4945971;29;20063;-90
2021/06/09 07:36:40;;;;;;;27.65;22.25;;;26.00;99.90;;;28.93;47.02;101163.16;4945929;29;20042;-86
2021/06/09 07:39:23;;;;;;;27.27;21.63;;;26.30;99.90;;;28.69;48.97;101165.75;4946082;29;20037;-92
2021/06/09 07:41:51;;;;;;;25.88;19.63;;;26.30;99.90;;;28.87;48.96;101168.72;4943676;29;20086;-87
2021/06/09 07:44:21;;;;;;;22.85;17.05;;;26.30;99.90;;;29.06;48.38;101158.88;4943984;29;20103;-88
2021/06/09 07:46:54;;;;;;;22.27;18.73;;;26.40;99.90;;;29.09;47.15;101168.66;4945117;29;20027;-90
2021/06/09 07:49:23;;;;;;;25.92;19.85;;;26.50;99.90;;;29.31;46.93;101166.53;4948329;29;20034;-93
2021/06/09 07:51:50;;;;;;;21.08;16.83;;;26.60;99.90;;;29.46;46.10;101163.84;4953628;29;20031;-90
2021/06/09 07:54:18;;;;;;;24.52;19.55;;;26.60;99.90;;;29.52;45.69;101165.59;4942477;29;20046;-88
2021/06/09 07:56:46;;;;;;;23.42;19.90;;;26.80;99.90;;;29.28;46.27;101167.47;4942327;29;20483;-90
2021/06/09 07:59:18;;;;;;;20.60;16.55;;;26.80;99.90;;;29.56;45.24;101163.38;4942610;29;20082;-90
2021/06/09 08:01:45;;;;;;;21.65;17.50;;;26.90;98.80;;;29.79;44.74;101159.09;4942968;29;20128;-91
2021/06/09 08:04:12;;;;;;;24.95;18.65;;;27.00;96.90;;;29.86;44.41;101158.00;4943715;28;20031;-89
2021/06/09 08:06:43;;;;;;;26.80;20.60;;;27.30;94.80;;;29.79;43.08;101159.91;4942879;29;20030;-90
2021/06/09 08:09:10;;;;;;;24.23;20.00;;;27.40;89.90;;;29.75;44.42;101156.38;4944511;29;20035;-89
2021/06/09 08:11:37;;;;;;;27.50;21.15;;;27.40;92.60;;;29.92;44.87;101159.78;4960131;29;20027;-89
2021/06/09 08:14:07;;;;;;;25.02;21.42;;;27.50;94.40;;;29.74;45.56;101157.63;4943657;29;20042;-86
2021/06/09 08:16:34;;;;;;;24.90;19.90;;;27.50;94.50;;;29.77;45.42;101155.88;4961514;29;20039;-93
2021/06/09 08:19:06;;;;;;;25.00;20.58;;;27.40;96.00;;;29.98;43.59;101152.09;4960249;28;20138;-87
2021/06/09 08:21:35;;;;;;;21.88;16.95;;;27.50;90.80;;;29.74;45.53;101162.59;4944929;29;20403;-88
2021/06/09 08:24:03;;;;;;;26.38;20.00;;;27.40;96.90;;;29.49;45.36;101154.25;4949666;29;20058;-83
2021/06/09 08:26:30;;;;;;;25.65;18.70;;;27.10;93.30;;;29.32;45.77;101150.03;4961140;28;20039;-83
2021/06/09 08:28:58;;;;;;;27.45;20.35;;;27.00;95.50;;;28.95;45.89;101149.09;4949437;29;20039;-87
2021/06/09 08:31:30;;;;;;;18.42;16.10;;;26.80;95.30;;;29.58;46.36;101160.81;4945415;29;20027;-89
2021/06/09 08:34:01;;;;;;;24.23;18.80;;;27.10;99.90;;;29.42;44.28;101152.47;4959724;29;20123;-88
2021/06/09 08:36:30;;;;;;;19.05;15.80;;;27.00;92.40;;;28.97;47.45;101161.72;4943461;29;20106;-88
2021/06/09 08:38:58;;;;;;;19.80;17.58;;;26.60;99.90;;;28.28;48.34;101164.03;4960343;28;20031;-87
2021/06/09 08:41:39;;;;;;;18.85;15.13;;;26.10;99.90;;;27.63;49.80;101164.75;4960472;29;20027;-90
2021/06/09 08:44:06;;;;;;;17.17;13.68;;;25.60;99.90;;;27.35;51.08;101165.69;4962925;29;20043;-90
2021/06/09 08:46:35;;;;;;;22.52;16.80;;;25.30;99.90;;;28.00;50.06;101162.22;4960239;29;20031;-90
2021/06/09 08:49:03;;;;;;;19.63;16.90;;;25.60;99.90;;;28.71;47.89;101158.25;4944977;29;20158;-87
2021/06/09 08:51:33;;;;;;;20.33;15.80;;;26.10;99.90;;;29.45;45.10;101156.47;4943392;29;20487;-87
2021/06/09 08:54:05;;;;;;;20.23;15.65;;;26.70;99.00;;;30.31;44.79;101157.97;4959935;29;20495;-91
2021/06/09 08:56:32;;;;;;;17.30;15.15;;;27.40;98.60;;;30.68;43.00;101159.53;4943505;29;20049;-87
2021/06/09 08:58:59;;;;;;;17.23;14.15;;;27.90;92.50;;;31.08;43.04;101162.09;4943152;29;20039;-92
2021/06/09 09:01:25;;;;;;;22.25;17.55;;;28.30;90.80;;;29.93;42.95;101149.84;4943738;29;20046;-89
2021/06/09 09:03:52;;;;;;;18.52;14.77;;;27.90;82.60;;;29.36;44.81;101157.25;4943332;29;20148;-88
2021/06/09 09:06:20;;;;;;;14.15;12.65;;;27.20;90.90;;;29.11;45.98;101141.03;4959358;29;20434;-89
2021/06/09 09:08:46;;;;;;;15.45;13.30;;;26.90;94.80;;;29.73;44.69;101147.38;4945646;29;20036;-89
2021/06/09 09:11:12;;;;;;;16.52;14.73;;;27.20;93.70;;;30.17;42.74;101150.00;4944847;29;20049;-89
2021/06/09 09:13:40;;;;;;;21.05;17.75;;;27.60;88.40;;;30.45;41.68;101154.44;4964673;29;20039;-88
2021/06/09 09:16:07;;;;;;;21.60;16.15;;;28.00;83.00;;;31.06;41.59;101155.22;4945287;29;20100;-88
2021/06/09 09:19:01;;;;;;;20.65;16.42;;;28.40;82.10;;;31.77;40.18;101164.75;4947434;29;20483;-91
2021/06/09 09:21:42;;;;;;;23.27;20.88;;;28.90;77.50;;;30.92;39.27;101155.91;4947349;29;20070;-89
2021/06/09 09:24:12;;;;;;;18.35;16.35;;;28.60;70.20;;;30.66;41.48;101161.28;4947424;29;20038;-89
2021/06/09 09:26:44;;;;;;;22.60;19.08;;;28.20;77.10;;;29.58;43.93;101155.06;4946493;29;20019;-88
2021/06/09 09:29:21;;;;;;;20.92;18.65;;;27.60;80.50;;;28.94;45.05;101159.00;4962710;28;20110;-87
2021/06/09 09:31:52;;;;;;;20.20;18.02;;;27.10;86.30;;;28.30;46.52;101169.31;4946370;29;20027;-89
2021/06/09 09:34:35;;;;;;;20.67;18.52;;;26.40;92.40;;;27.63;48.49;101161.88;4960800;29;20066;-88
2021/06/09 09:37:32;;;;;;;22.08;19.23;;;25.90;97.90;;;27.29;49.39;101167.53;4960749;29;20098;-86
2021/06/09 09:40:16;;;;;;;20.05;18.00;;;25.50;99.90;;;27.75;48.34;101171.69;4960258;28;20114;-88
2021/06/09 09:42:50;;;;;;;22.33;15.93;;;25.60;99.90;;;28.07;46.89;101168.50;4945572;29;20483;-87
2021/06/09 09:45:34;;;;;;;16.58;14.32;;;25.90;99.40;;;28.91;46.13;101157.88;4946810;29;20510;-88
2021/06/09 09:48:09;;;;;;;18.25;14.82;;;26.40;99.70;;;29.76;44.65;101171.56;4961028;28;20051;-90
2021/06/09 09:50:49;;;;;;;16.20;14.53;;;27.20;95.70;;;30.59;41.70;101173.97;4963269;29;20079;-87
2021/06/09 09:53:29;;;;;;;13.48;11.77;;;28.00;85.80;;;30.93;41.45;101160.38;4961119;29;20032;-87
2021/06/09 09:56:05;;;;;;;15.63;14.05;;;28.30;82.10;;;30.85;40.77;101165.72;4945031;29;20023;-86
2021/06/09 09:58:50;;;;;;;15.05;13.05;;;28.40;75.10;;;30.21;42.38;101179.44;4959169;28;20034;-88
2021/06/09 10:01:27;;;;;;;18.10;14.18;;;27.90;78.00;;;29.66;43.31;101172.84;4946218;29;20027;-88
2021/06/09 10:03:57;;;;;;;16.75;14.15;;;27.50;82.10;;;28.93;44.72;101180.41;4945339;29;20412;-88
2021/06/09 10:06:57;;;;;;;18.58;15.98;;;26.80;87.80;;;28.24;45.75;101175.66;4945612;29;20098;-89
2021/06/09 10:09:30;;;;;;;17.63;13.50;;;26.30;91.00;;;27.64;47.94;101168.41;4917560;29;20123;-89
2021/06/09 10:12:13;;;;;;;16.63;13.27;;;25.70;98.30;;;27.80;49.02;101171.13;4961369;29;20047;-90
2021/06/09 10:14:52;;;;;;;16.42;13.77;;;25.70;99.90;;;28.94;44.07;101159.81;4948855;29;20055;-91
2021/06/09 10:17:29;;;;;;;12.68;11.32;;;26.40;93.00;;;29.79;43.79;101153.34;4946605;29;20027;-89
2021/06/09 10:20:00;;;;;;;16.48;14.05;;;27.00;92.40;;;30.16;40.19;101163.59;4948085;29;20027;-88
2021/06/09 10:22:34;;;;;;;13.27;11.85;;;27.60;75.80;;;30.92;40.67;101155.91;4962322;29;20038;-87